sensor_id;sensor_type;location;lat;lon;timestamp;P1;durP1;ratioP1;P2;durP2;ratioP2
65871;SDS011;52653;50.080;21.992;2023-04-03T00:01:31;6.50;;;4.40;;
65871;SDS011;52653;50.080;21.992;2023-04-03T00:04:24;6.20;;;4.30;;
65871;SDS011;52653;50.080;21.992;2023-04-03T00:07:17;5.90;;;4.00;;
65871;SDS011;52653;50.080;21.992;2023-04-03T00:10:10;6.70;;;4.20;;
65871;SDS011;52653;50.080;21.992;2023-04-03T00:13:04;6.50;;;4.40;;
65871;SDS011;52653;50.080;21.992;2023-04-03T00:15:58;6.60;;;4.30;;
65871;SDS011;52653;50.080;21.992;2023-04-03T00:18:52;6.70;;;4.70;;
65871;SDS011;52653;50.080;21.992;2023-04-03T00:21:36;6.50;;;4.80;;
65871;SDS011;52653;50.080;21.992;2023-04-03T00:24:20;6.40;;;5.10;;
65871;SDS011;52653;50.080;21.992;2023-04-03T00:27:03;6.90;;;5.30;;
65871;SDS011;52653;50.080;21.992;2023-04-03T00:29:40;6.70;;;4.80;;
65871;SDS011;52653;50.080;21.992;2023-04-03T00:32:32;6.20;;;4.90;;
65871;SDS011;52653;50.080;21.992;2023-04-03T00:35:25;6.10;;;4.40;;
65871;SDS011;52653;50.080;21.992;2023-04-03T00:38:19;7.00;;;4.80;;
65871;SDS011;52653;50.080;21.992;2023-04-03T00:41:10;6.00;;;4.70;;
65871;SDS011;52653;50.080;21.992;2023-04-03T00:43:46;7.20;;;5.40;;
65871;SDS011;52653;50.080;21.992;2023-04-03T00:46:41;6.80;;;5.40;;
65871;SDS011;52653;50.080;21.992;2023-04-03T00:49:33;7.00;;;5.60;;
65871;SDS011;52653;50.080;21.992;2023-04-03T00:52:08;7.30;;;5.60;;
65871;SDS011;52653;50.080;21.992;2023-04-03T00:54:47;6.80;;;5.00;;
65871;SDS011;52653;50.080;21.992;2023-04-03T00:57:23;6.60;;;5.00;;
65871;SDS011;52653;50.080;21.992;2023-04-03T01:00:18;6.80;;;5.40;;
65871;SDS011;52653;50.080;21.992;2023-04-03T01:03:14;6.90;;;5.70;;
65871;SDS011;52653;50.080;21.992;2023-04-03T01:05:49;7.10;;;5.60;;
65871;SDS011;52653;50.080;21.992;2023-04-03T01:08:32;7.30;;;5.20;;
65871;SDS011;52653;50.080;21.992;2023-04-03T01:11:26;6.80;;;5.10;;
65871;SDS011;52653;50.080;21.992;2023-04-03T01:14:08;6.50;;;5.10;;
65871;SDS011;52653;50.080;21.992;2023-04-03T01:16:52;7.10;;;5.00;;
65871;SDS011;52653;50.080;21.992;2023-04-03T01:19:46;6.40;;;4.70;;
65871;SDS011;52653;50.080;21.992;2023-04-03T01:22:37;5.90;;;4.40;;
65871;SDS011;52653;50.080;21.992;2023-04-03T01:25:35;6.40;;;4.30;;
65871;SDS011;52653;50.080;21.992;2023-04-03T01:28:31;5.40;;;3.70;;
65871;SDS011;52653;50.080;21.992;2023-04-03T01:31:18;4.80;;;3.20;;
65871;SDS011;52653;50.080;21.992;2023-04-03T01:34:06;6.00;;;4.00;;
65871;SDS011;52653;50.080;21.992;2023-04-03T01:36:58;4.80;;;3.10;;
65871;SDS011;52653;50.080;21.992;2023-04-03T01:39:44;5.80;;;4.00;;
65871;SDS011;52653;50.080;21.992;2023-04-03T01:42:17;5.50;;;3.30;;
65871;SDS011;52653;50.080;21.992;2023-04-03T01:45:11;4.90;;;3.00;;
65871;SDS011;52653;50.080;21.992;2023-04-03T01:47:47;4.60;;;2.80;;
65871;SDS011;52653;50.080;21.992;2023-04-03T01:50:25;4.70;;;2.80;;
65871;SDS011;52653;50.080;21.992;2023-04-03T01:53:08;4.80;;;3.00;;
65871;SDS011;52653;50.080;21.992;2023-04-03T01:56:00;5.40;;;3.30;;
65871;SDS011;52653;50.080;21.992;2023-04-03T01:58:53;5.00;;;3.20;;
65871;SDS011;52653;50.080;21.992;2023-04-03T02:01:26;5.30;;;3.30;;
65871;SDS011;52653;50.080;21.992;2023-04-03T02:04:04;5.40;;;3.00;;
65871;SDS011;52653;50.080;21.992;2023-04-03T02:06:47;5.30;;;3.10;;
65871;SDS011;52653;50.080;21.992;2023-04-03T02:09:24;4.60;;;2.80;;
65871;SDS011;52653;50.080;21.992;2023-04-03T02:12:07;5.20;;;3.50;;
65871;SDS011;52653;50.080;21.992;2023-04-03T02:14:49;4.70;;;2.90;;
65871;SDS011;52653;50.080;21.992;2023-04-03T02:17:36;4.80;;;2.70;;
65871;SDS011;52653;50.080;21.992;2023-04-03T02:20:22;4.70;;;2.70;;
65871;SDS011;52653;50.080;21.992;2023-04-03T02:23:16;4.90;;;3.50;;
65871;SDS011;52653;50.080;21.992;2023-04-03T02:26:09;4.50;;;2.70;;
65871;SDS011;52653;50.080;21.992;2023-04-03T02:31:38;4.20;;;2.70;;
65871;SDS011;52653;50.080;21.992;2023-04-03T02:34:31;4.00;;;2.70;;
65871;SDS011;52653;50.080;21.992;2023-04-03T02:37:17;4.80;;;2.70;;
65871;SDS011;52653;50.080;21.992;2023-04-03T02:40:03;5.10;;;3.40;;
65871;SDS011;52653;50.080;21.992;2023-04-03T02:42:51;4.60;;;2.80;;
65871;SDS011;52653;50.080;21.992;2023-04-03T02:45:27;5.10;;;3.10;;
65871;SDS011;52653;50.080;21.992;2023-04-03T02:48:21;5.00;;;3.10;;
65871;SDS011;52653;50.080;21.992;2023-04-03T02:50:57;4.30;;;2.50;;
65871;SDS011;52653;50.080;21.992;2023-04-03T02:53:40;4.70;;;2.90;;
65871;SDS011;52653;50.080;21.992;2023-04-03T02:56:17;3.60;;;2.30;;
65871;SDS011;52653;50.080;21.992;2023-04-03T02:59:10;4.40;;;2.90;;
65871;SDS011;52653;50.080;21.992;2023-04-03T03:01:53;4.60;;;2.70;;
65871;SDS011;52653;50.080;21.992;2023-04-03T03:04:46;4.80;;;2.90;;
65871;SDS011;52653;50.080;21.992;2023-04-03T03:07:22;4.10;;;2.60;;
65871;SDS011;52653;50.080;21.992;2023-04-03T03:10:04;4.70;;;2.80;;
65871;SDS011;52653;50.080;21.992;2023-04-03T03:12:47;5.10;;;3.10;;
65871;SDS011;52653;50.080;21.992;2023-04-03T03:15:20;4.70;;;3.00;;
65871;SDS011;52653;50.080;21.992;2023-04-03T03:17:54;5.80;;;3.40;;
65871;SDS011;52653;50.080;21.992;2023-04-03T03:20:38;5.20;;;3.60;;
65871;SDS011;52653;50.080;21.992;2023-04-03T03:23:31;4.60;;;2.90;;
65871;SDS011;52653;50.080;21.992;2023-04-03T03:26:14;5.60;;;3.10;;
65871;SDS011;52653;50.080;21.992;2023-04-03T03:28:58;4.40;;;2.80;;
65871;SDS011;52653;50.080;21.992;2023-04-03T03:31:42;5.40;;;3.50;;
65871;SDS011;52653;50.080;21.992;2023-04-03T03:34:36;5.30;;;3.20;;
65871;SDS011;52653;50.080;21.992;2023-04-03T03:37:29;5.30;;;3.30;;
65871;SDS011;52653;50.080;21.992;2023-04-03T03:40:06;5.80;;;4.00;;
65871;SDS011;52653;50.080;21.992;2023-04-03T03:43:02;5.30;;;3.40;;
65871;SDS011;52653;50.080;21.992;2023-04-03T03:45:35;4.80;;;3.50;;
65871;SDS011;52653;50.080;21.992;2023-04-03T03:48:18;5.50;;;3.70;;
65871;SDS011;52653;50.080;21.992;2023-04-03T03:50:51;6.10;;;4.00;;
65871;SDS011;52653;50.080;21.992;2023-04-03T03:53:44;6.70;;;3.90;;
65871;SDS011;52653;50.080;21.992;2023-04-03T03:56:31;7.00;;;4.80;;
65871;SDS011;52653;50.080;21.992;2023-04-03T03:59:13;7.40;;;5.10;;
65871;SDS011;52653;50.080;21.992;2023-04-03T04:01:50;8.80;;;5.30;;
65871;SDS011;52653;50.080;21.992;2023-04-03T04:04:26;8.60;;;5.60;;
65871;SDS011;52653;50.080;21.992;2023-04-03T04:07:19;8.10;;;5.40;;
65871;SDS011;52653;50.080;21.992;2023-04-03T04:10:13;6.90;;;4.40;;
65871;SDS011;52653;50.080;21.992;2023-04-03T04:13:06;7.10;;;4.80;;
65871;SDS011;52653;50.080;21.992;2023-04-03T04:16:00;5.80;;;4.60;;
65871;SDS011;52653;50.080;21.992;2023-04-03T04:18:53;6.40;;;4.40;;
65871;SDS011;52653;50.080;21.992;2023-04-03T04:21:46;5.90;;;3.90;;
65871;SDS011;52653;50.080;21.992;2023-04-03T04:24:40;5.40;;;3.80;;
65871;SDS011;52653;50.080;21.992;2023-04-03T04:27:33;6.60;;;3.90;;
65871;SDS011;52653;50.080;21.992;2023-04-03T04:30:16;5.10;;;3.30;;
65871;SDS011;52653;50.080;21.992;2023-04-03T04:33:01;5.70;;;3.80;;
65871;SDS011;52653;50.080;21.992;2023-04-03T04:35:48;6.50;;;4.40;;
65871;SDS011;52653;50.080;21.992;2023-04-03T04:38:32;8.80;;;4.50;;
65871;SDS011;52653;50.080;21.992;2023-04-03T04:41:25;8.10;;;5.50;;
65871;SDS011;52653;50.080;21.992;2023-04-03T04:44:18;7.80;;;5.30;;
65871;SDS011;52653;50.080;21.992;2023-04-03T04:47:11;8.60;;;5.60;;
65871;SDS011;52653;50.080;21.992;2023-04-03T04:49:49;9.50;;;6.30;;
65871;SDS011;52653;50.080;21.992;2023-04-03T04:52:37;9.10;;;5.70;;
65871;SDS011;52653;50.080;21.992;2023-04-03T04:55:14;6.50;;;4.50;;
65871;SDS011;52653;50.080;21.992;2023-04-03T04:57:57;5.90;;;3.80;;
65871;SDS011;52653;50.080;21.992;2023-04-03T05:00:40;9.80;;;5.60;;
65871;SDS011;52653;50.080;21.992;2023-04-03T05:03:13;7.80;;;4.30;;
65871;SDS011;52653;50.080;21.992;2023-04-03T05:05:58;6.90;;;4.60;;
65871;SDS011;52653;50.080;21.992;2023-04-03T05:08:44;7.40;;;4.00;;
65871;SDS011;52653;50.080;21.992;2023-04-03T05:11:18;11.20;;;6.50;;
65871;SDS011;52653;50.080;21.992;2023-04-03T05:14:13;9.50;;;4.90;;
65871;SDS011;52653;50.080;21.992;2023-04-03T05:16:57;9.20;;;5.40;;
65871;SDS011;52653;50.080;21.992;2023-04-03T05:19:33;7.10;;;4.40;;
65871;SDS011;52653;50.080;21.992;2023-04-03T05:22:27;8.10;;;4.10;;
65871;SDS011;52653;50.080;21.992;2023-04-03T05:25:05;8.50;;;4.80;;
65871;SDS011;52653;50.080;21.992;2023-04-03T05:27:51;9.30;;;4.50;;
65871;SDS011;52653;50.080;21.992;2023-04-03T05:30:46;8.30;;;5.10;;
65871;SDS011;52653;50.080;21.992;2023-04-03T05:33:46;6.60;;;4.20;;
65871;SDS011;52653;50.080;21.992;2023-04-03T05:36:39;8.60;;;5.20;;
65871;SDS011;52653;50.080;21.992;2023-04-03T05:39:26;8.30;;;5.00;;
65871;SDS011;52653;50.080;21.992;2023-04-03T05:42:11;8.70;;;4.90;;
65871;SDS011;52653;50.080;21.992;2023-04-03T05:45:07;6.00;;;3.80;;
65871;SDS011;52653;50.080;21.992;2023-04-03T05:48:00;5.90;;;3.70;;
65871;SDS011;52653;50.080;21.992;2023-04-03T05:50:37;6.60;;;3.30;;
65871;SDS011;52653;50.080;21.992;2023-04-03T05:53:16;7.60;;;3.50;;
65871;SDS011;52653;50.080;21.992;2023-04-03T05:55:52;5.50;;;3.50;;
65871;SDS011;52653;50.080;21.992;2023-04-03T05:58:45;18.50;;;8.70;;
65871;SDS011;52653;50.080;21.992;2023-04-03T06:01:38;19.50;;;8.60;;
65871;SDS011;52653;50.080;21.992;2023-04-03T06:04:11;15.50;;;8.30;;
65871;SDS011;52653;50.080;21.992;2023-04-03T06:06:58;9.90;;;5.80;;
65871;SDS011;52653;50.080;21.992;2023-04-03T06:09:42;7.40;;;3.90;;
65871;SDS011;52653;50.080;21.992;2023-04-03T06:12:26;6.70;;;3.90;;
65871;SDS011;52653;50.080;21.992;2023-04-03T06:15:20;8.20;;;4.50;;
65871;SDS011;52653;50.080;21.992;2023-04-03T06:18:13;6.80;;;4.30;;
65871;SDS011;52653;50.080;21.992;2023-04-03T06:20:49;12.80;;;6.40;;
65871;SDS011;52653;50.080;21.992;2023-04-03T06:23:35;34.90;;;16.90;;
65871;SDS011;52653;50.080;21.992;2023-04-03T06:26:28;11.20;;;6.50;;
65871;SDS011;52653;50.080;21.992;2023-04-03T06:29:23;12.50;;;7.70;;
65871;SDS011;52653;50.080;21.992;2023-04-03T06:32:08;6.90;;;4.80;;
65871;SDS011;52653;50.080;21.992;2023-04-03T06:34:45;7.20;;;4.20;;
65871;SDS011;52653;50.080;21.992;2023-04-03T06:37:38;6.30;;;3.70;;
65871;SDS011;52653;50.080;21.992;2023-04-03T06:40:32;6.20;;;4.00;;
65871;SDS011;52653;50.080;21.992;2023-04-03T06:43:25;6.50;;;3.90;;
65871;SDS011;52653;50.080;21.992;2023-04-03T06:46:20;8.30;;;4.80;;
65871;SDS011;52653;50.080;21.992;2023-04-03T06:49:00;8.70;;;4.90;;
65871;SDS011;52653;50.080;21.992;2023-04-03T06:51:46;7.10;;;4.60;;
65871;SDS011;52653;50.080;21.992;2023-04-03T06:54:43;9.10;;;5.10;;
65871;SDS011;52653;50.080;21.992;2023-04-03T06:57:25;9.10;;;5.30;;
65871;SDS011;52653;50.080;21.992;2023-04-03T07:00:07;8.00;;;5.00;;
65871;SDS011;52653;50.080;21.992;2023-04-03T07:02:52;9.60;;;5.50;;
65871;SDS011;52653;50.080;21.992;2023-04-03T07:05:29;7.50;;;4.80;;
65871;SDS011;52653;50.080;21.992;2023-04-03T07:08:05;6.70;;;4.40;;
65871;SDS011;52653;50.080;21.992;2023-04-03T07:10:38;6.80;;;4.80;;
65871;SDS011;52653;50.080;21.992;2023-04-03T07:13:12;9.30;;;6.30;;
65871;SDS011;52653;50.080;21.992;2023-04-03T07:15:55;8.30;;;5.40;;
65871;SDS011;52653;50.080;21.992;2023-04-03T07:18:50;8.50;;;5.10;;
65871;SDS011;52653;50.080;21.992;2023-04-03T07:21:37;10.50;;;7.30;;
65871;SDS011;52653;50.080;21.992;2023-04-03T07:24:16;8.10;;;6.00;;
65871;SDS011;52653;50.080;21.992;2023-04-03T07:27:09;6.40;;;4.30;;
65871;SDS011;52653;50.080;21.992;2023-04-03T07:30:02;8.80;;;5.30;;
65871;SDS011;52653;50.080;21.992;2023-04-03T07:32:56;7.90;;;5.50;;
65871;SDS011;52653;50.080;21.992;2023-04-03T07:35:49;7.90;;;4.90;;
65871;SDS011;52653;50.080;21.992;2023-04-03T07:38:26;6.50;;;4.10;;
65871;SDS011;52653;50.080;21.992;2023-04-03T07:41:20;5.10;;;3.60;;
65871;SDS011;52653;50.080;21.992;2023-04-03T07:44:06;5.60;;;3.90;;
65871;SDS011;52653;50.080;21.992;2023-04-03T07:46:54;8.50;;;5.80;;
65871;SDS011;52653;50.080;21.992;2023-04-03T07:49:27;8.00;;;5.30;;
65871;SDS011;52653;50.080;21.992;2023-04-03T07:52:21;8.40;;;5.60;;
65871;SDS011;52653;50.080;21.992;2023-04-03T07:55:14;8.70;;;5.40;;
65871;SDS011;52653;50.080;21.992;2023-04-03T07:57:47;9.10;;;5.30;;
65871;SDS011;52653;50.080;21.992;2023-04-03T08:00:33;7.90;;;5.30;;
65871;SDS011;52653;50.080;21.992;2023-04-03T08:03:25;7.50;;;4.70;;
65871;SDS011;52653;50.080;21.992;2023-04-03T08:06:02;6.60;;;4.30;;
65871;SDS011;52653;50.080;21.992;2023-04-03T08:08:54;8.20;;;4.90;;
65871;SDS011;52653;50.080;21.992;2023-04-03T08:11:37;7.40;;;5.20;;
65871;SDS011;52653;50.080;21.992;2023-04-03T08:14:34;7.60;;;4.90;;
65871;SDS011;52653;50.080;21.992;2023-04-03T08:17:15;6.70;;;4.70;;
65871;SDS011;52653;50.080;21.992;2023-04-03T08:19:58;5.90;;;3.80;;
65871;SDS011;52653;50.080;21.992;2023-04-03T08:22:34;7.80;;;5.00;;
65871;SDS011;52653;50.080;21.992;2023-04-03T08:25:17;6.40;;;4.50;;
65871;SDS011;52653;50.080;21.992;2023-04-03T08:27:53;6.70;;;4.40;;
65871;SDS011;52653;50.080;21.992;2023-04-03T08:30:48;8.10;;;5.30;;
65871;SDS011;52653;50.080;21.992;2023-04-03T08:33:28;8.40;;;5.50;;
65871;SDS011;52653;50.080;21.992;2023-04-03T08:36:16;8.30;;;5.60;;
65871;SDS011;52653;50.080;21.992;2023-04-03T08:38:55;8.10;;;5.80;;
65871;SDS011;52653;50.080;21.992;2023-04-03T08:41:48;8.90;;;5.70;;
65871;SDS011;52653;50.080;21.992;2023-04-03T08:44:25;7.30;;;4.90;;
65871;SDS011;52653;50.080;21.992;2023-04-03T08:47:13;6.80;;;3.80;;
65871;SDS011;52653;50.080;21.992;2023-04-03T08:49:57;8.00;;;4.50;;
65871;SDS011;52653;50.080;21.992;2023-04-03T08:52:47;6.20;;;4.10;;
65871;SDS011;52653;50.080;21.992;2023-04-03T08:55:26;7.30;;;4.20;;
65871;SDS011;52653;50.080;21.992;2023-04-03T08:58:23;7.10;;;4.20;;
65871;SDS011;52653;50.080;21.992;2023-04-03T09:01:00;6.60;;;4.40;;
65871;SDS011;52653;50.080;21.992;2023-04-03T09:03:47;8.30;;;4.40;;
65871;SDS011;52653;50.080;21.992;2023-04-03T09:06:31;8.20;;;4.80;;
65871;SDS011;52653;50.080;21.992;2023-04-03T09:09:13;7.60;;;4.30;;
65871;SDS011;52653;50.080;21.992;2023-04-03T09:15:01;7.30;;;4.10;;
65871;SDS011;52653;50.080;21.992;2023-04-03T09:17:47;7.70;;;5.30;;
65871;SDS011;52653;50.080;21.992;2023-04-03T09:20:33;8.20;;;4.50;;
65871;SDS011;52653;50.080;21.992;2023-04-03T09:23:19;6.70;;;3.80;;
65871;SDS011;52653;50.080;21.992;2023-04-03T09:26:01;8.20;;;4.20;;
65871;SDS011;52653;50.080;21.992;2023-04-03T09:28:40;8.10;;;4.70;;
65871;SDS011;52653;50.080;21.992;2023-04-03T09:31:30;6.50;;;4.00;;
65871;SDS011;52653;50.080;21.992;2023-04-03T09:34:13;8.40;;;4.30;;
65871;SDS011;52653;50.080;21.992;2023-04-03T09:36:54;7.20;;;4.20;;
65871;SDS011;52653;50.080;21.992;2023-04-03T09:39:50;6.30;;;3.50;;
65871;SDS011;52653;50.080;21.992;2023-04-03T09:42:28;6.70;;;3.80;;
65871;SDS011;52653;50.080;21.992;2023-04-03T09:45:03;6.20;;;3.40;;
65871;SDS011;52653;50.080;21.992;2023-04-03T09:48:05;6.60;;;3.30;;
65871;SDS011;52653;50.080;21.992;2023-04-03T09:50:59;7.90;;;4.00;;
65871;SDS011;52653;50.080;21.992;2023-04-03T09:53:36;6.60;;;3.50;;
65871;SDS011;52653;50.080;21.992;2023-04-03T09:56:19;8.70;;;4.00;;
65871;SDS011;52653;50.080;21.992;2023-04-03T09:59:12;6.60;;;3.90;;
65871;SDS011;52653;50.080;21.992;2023-04-03T10:02:16;6.50;;;3.80;;
65871;SDS011;52653;50.080;21.992;2023-04-03T10:05:01;8.40;;;4.10;;
65871;SDS011;52653;50.080;21.992;2023-04-03T10:08:09;9.10;;;4.30;;
65871;SDS011;52653;50.080;21.992;2023-04-03T10:11:13;11.00;;;4.50;;
65871;SDS011;52653;50.080;21.992;2023-04-03T10:13:58;6.20;;;3.20;;
65871;SDS011;52653;50.080;21.992;2023-04-03T10:16:53;6.60;;;3.50;;
65871;SDS011;52653;50.080;21.992;2023-04-03T10:19:35;7.10;;;3.80;;
65871;SDS011;52653;50.080;21.992;2023-04-03T10:22:18;7.50;;;4.00;;
65871;SDS011;52653;50.080;21.992;2023-04-03T10:24:59;7.00;;;3.80;;
65871;SDS011;52653;50.080;21.992;2023-04-03T10:27:47;8.00;;;4.00;;
65871;SDS011;52653;50.080;21.992;2023-04-03T10:33:16;8.40;;;4.30;;
65871;SDS011;52653;50.080;21.992;2023-04-03T10:36:09;12.60;;;6.20;;
65871;SDS011;52653;50.080;21.992;2023-04-03T10:38:51;10.30;;;5.50;;
65871;SDS011;52653;50.080;21.992;2023-04-03T10:41:33;9.10;;;4.60;;
65871;SDS011;52653;50.080;21.992;2023-04-03T10:44:29;9.80;;;5.00;;
65871;SDS011;52653;50.080;21.992;2023-04-03T10:47:15;9.50;;;4.60;;
65871;SDS011;52653;50.080;21.992;2023-04-03T10:50:05;9.50;;;4.30;;
65871;SDS011;52653;50.080;21.992;2023-04-03T10:52:54;10.60;;;4.80;;
65871;SDS011;52653;50.080;21.992;2023-04-03T10:55:34;11.60;;;5.60;;
65871;SDS011;52653;50.080;21.992;2023-04-03T11:00:50;9.60;;;4.10;;
65871;SDS011;52653;50.080;21.992;2023-04-03T11:03:38;9.00;;;3.80;;
65871;SDS011;52653;50.080;21.992;2023-04-03T11:06:36;8.20;;;3.50;;
65871;SDS011;52653;50.080;21.992;2023-04-03T11:09:22;7.30;;;3.70;;
65871;SDS011;52653;50.080;21.992;2023-04-03T11:12:20;8.50;;;4.00;;
65871;SDS011;52653;50.080;21.992;2023-04-03T11:15:17;7.10;;;3.50;;
65871;SDS011;52653;50.080;21.992;2023-04-03T11:18:12;8.70;;;4.10;;
65871;SDS011;52653;50.080;21.992;2023-04-03T11:21:04;7.50;;;4.10;;
65871;SDS011;52653;50.080;21.992;2023-04-03T11:23:42;8.50;;;4.30;;
65871;SDS011;52653;50.080;21.992;2023-04-03T11:26:19;7.50;;;3.80;;
65871;SDS011;52653;50.080;21.992;2023-04-03T11:28:59;10.20;;;4.20;;
65871;SDS011;52653;50.080;21.992;2023-04-03T11:32:04;8.20;;;4.00;;
65871;SDS011;52653;50.080;21.992;2023-04-03T11:34:54;7.40;;;3.80;;
65871;SDS011;52653;50.080;21.992;2023-04-03T11:37:35;8.20;;;4.20;;
65871;SDS011;52653;50.080;21.992;2023-04-03T11:40:21;7.30;;;3.90;;
65871;SDS011;52653;50.080;21.992;2023-04-03T11:43:02;6.30;;;3.20;;
65871;SDS011;52653;50.080;21.992;2023-04-03T11:45:58;7.60;;;4.00;;
65871;SDS011;52653;50.080;21.992;2023-04-03T11:48:54;6.70;;;3.80;;
65871;SDS011;52653;50.080;21.992;2023-04-03T11:54:48;7.30;;;3.40;;
65871;SDS011;52653;50.080;21.992;2023-04-03T12:00:57;8.30;;;3.70;;
65871;SDS011;52653;50.080;21.992;2023-04-03T12:06:51;8.70;;;4.10;;
65871;SDS011;52653;50.080;21.992;2023-04-03T12:10:18;8.10;;;3.70;;
65871;SDS011;52653;50.080;21.992;2023-04-03T12:13:12;7.00;;;4.00;;
65871;SDS011;52653;50.080;21.992;2023-04-03T12:15:55;7.50;;;3.70;;
65871;SDS011;52653;50.080;21.992;2023-04-03T12:22:09;7.60;;;4.40;;
65871;SDS011;52653;50.080;21.992;2023-04-03T12:25:05;8.40;;;4.70;;
65871;SDS011;52653;50.080;21.992;2023-04-03T12:28:37;8.10;;;4.40;;
65871;SDS011;52653;50.080;21.992;2023-04-03T12:31:17;7.90;;;4.80;;
65871;SDS011;52653;50.080;21.992;2023-04-03T12:34:17;8.50;;;4.70;;
65871;SDS011;52653;50.080;21.992;2023-04-03T12:37:00;7.90;;;3.90;;
65871;SDS011;52653;50.080;21.992;2023-04-03T12:39:49;7.00;;;3.30;;
65871;SDS011;52653;50.080;21.992;2023-04-03T12:45:49;6.90;;;4.10;;
65871;SDS011;52653;50.080;21.992;2023-04-03T12:48:47;6.00;;;3.30;;
65871;SDS011;52653;50.080;21.992;2023-04-03T12:51:28;7.20;;;3.90;;
65871;SDS011;52653;50.080;21.992;2023-04-03T12:54:16;7.20;;;3.70;;
65871;SDS011;52653;50.080;21.992;2023-04-03T12:57:00;9.00;;;4.70;;
65871;SDS011;52653;50.080;21.992;2023-04-03T12:59:43;9.20;;;4.50;;
65871;SDS011;52653;50.080;21.992;2023-04-03T13:02:24;8.20;;;4.20;;
65871;SDS011;52653;50.080;21.992;2023-04-03T13:05:21;7.40;;;3.40;;
65871;SDS011;52653;50.080;21.992;2023-04-03T13:08:14;7.20;;;4.80;;
65871;SDS011;52653;50.080;21.992;2023-04-03T13:10:59;8.00;;;3.70;;
65871;SDS011;52653;50.080;21.992;2023-04-03T13:13:56;6.90;;;3.50;;
65871;SDS011;52653;50.080;21.992;2023-04-03T13:16:31;10.50;;;4.90;;
65871;SDS011;52653;50.080;21.992;2023-04-03T13:19:16;6.00;;;3.10;;
65871;SDS011;52653;50.080;21.992;2023-04-03T13:22:04;7.10;;;3.10;;
65871;SDS011;52653;50.080;21.992;2023-04-03T13:25:01;7.10;;;3.40;;
65871;SDS011;52653;50.080;21.992;2023-04-03T13:27:59;8.60;;;3.30;;
65871;SDS011;52653;50.080;21.992;2023-04-03T13:30:56;5.50;;;3.20;;
65871;SDS011;52653;50.080;21.992;2023-04-03T13:34:02;6.00;;;3.00;;
65871;SDS011;52653;50.080;21.992;2023-04-03T13:37:00;5.60;;;3.30;;
65871;SDS011;52653;50.080;21.992;2023-04-03T13:40:02;7.00;;;3.10;;
65871;SDS011;52653;50.080;21.992;2023-04-03T13:42:59;11.80;;;4.90;;
65871;SDS011;52653;50.080;21.992;2023-04-03T13:45:58;5.30;;;2.90;;
65871;SDS011;52653;50.080;21.992;2023-04-03T13:48:53;6.30;;;3.10;;
65871;SDS011;52653;50.080;21.992;2023-04-03T13:51:47;5.50;;;3.00;;
65871;SDS011;52653;50.080;21.992;2023-04-03T13:54:47;6.10;;;3.60;;
65871;SDS011;52653;50.080;21.992;2023-04-03T13:57:33;6.70;;;3.50;;
65871;SDS011;52653;50.080;21.992;2023-04-03T14:00:36;7.10;;;3.80;;
65871;SDS011;52653;50.080;21.992;2023-04-03T14:03:42;7.30;;;3.70;;
65871;SDS011;52653;50.080;21.992;2023-04-03T14:06:36;8.10;;;4.10;;
65871;SDS011;52653;50.080;21.992;2023-04-03T14:09:30;6.70;;;3.40;;
65871;SDS011;52653;50.080;21.992;2023-04-03T14:12:25;8.30;;;5.10;;
65871;SDS011;52653;50.080;21.992;2023-04-03T14:15:16;7.10;;;3.70;;
65871;SDS011;52653;50.080;21.992;2023-04-03T14:17:53;29.30;;;14.30;;
65871;SDS011;52653;50.080;21.992;2023-04-03T14:20:47;20.80;;;10.30;;
65871;SDS011;52653;50.080;21.992;2023-04-03T14:23:22;22.70;;;10.40;;
65871;SDS011;52653;50.080;21.992;2023-04-03T14:25:58;8.10;;;4.80;;
65871;SDS011;52653;50.080;21.992;2023-04-03T14:28:34;10.60;;;5.60;;
65871;SDS011;52653;50.080;21.992;2023-04-03T14:31:26;8.10;;;4.30;;
65871;SDS011;52653;50.080;21.992;2023-04-03T14:34:09;7.40;;;4.20;;
65871;SDS011;52653;50.080;21.992;2023-04-03T14:37:02;10.30;;;5.10;;
65871;SDS011;52653;50.080;21.992;2023-04-03T14:39:52;8.10;;;3.80;;
65871;SDS011;52653;50.080;21.992;2023-04-03T14:42:37;10.70;;;5.10;;
65871;SDS011;52653;50.080;21.992;2023-04-03T14:45:30;7.30;;;4.00;;
65871;SDS011;52653;50.080;21.992;2023-04-03T14:48:06;6.90;;;3.70;;
65871;SDS011;52653;50.080;21.992;2023-04-03T14:51:06;6.60;;;3.80;;
65871;SDS011;52653;50.080;21.992;2023-04-03T14:53:51;8.00;;;4.30;;
65871;SDS011;52653;50.080;21.992;2023-04-03T14:56:45;11.40;;;5.90;;
65871;SDS011;52653;50.080;21.992;2023-04-03T14:59:39;9.10;;;4.70;;
65871;SDS011;52653;50.080;21.992;2023-04-03T15:05:13;9.70;;;6.20;;
65871;SDS011;52653;50.080;21.992;2023-04-03T15:08:09;10.80;;;6.00;;
65871;SDS011;52653;50.080;21.992;2023-04-03T15:11:10;14.90;;;6.90;;
65871;SDS011;52653;50.080;21.992;2023-04-03T15:14:04;12.10;;;7.10;;
65871;SDS011;52653;50.080;21.992;2023-04-03T15:16:52;9.90;;;4.90;;
65871;SDS011;52653;50.080;21.992;2023-04-03T15:19:44;11.80;;;6.20;;
65871;SDS011;52653;50.080;21.992;2023-04-03T15:22:38;11.50;;;5.60;;
65871;SDS011;52653;50.080;21.992;2023-04-03T15:25:21;9.60;;;5.10;;
65871;SDS011;52653;50.080;21.992;2023-04-03T15:27:55;9.90;;;5.70;;
65871;SDS011;52653;50.080;21.992;2023-04-03T15:30:28;10.80;;;5.30;;
65871;SDS011;52653;50.080;21.992;2023-04-03T15:33:22;8.40;;;5.00;;
65871;SDS011;52653;50.080;21.992;2023-04-03T15:35:58;9.70;;;5.40;;
65871;SDS011;52653;50.080;21.992;2023-04-03T15:38:36;9.30;;;5.50;;
65871;SDS011;52653;50.080;21.992;2023-04-03T15:41:11;10.90;;;5.40;;
65871;SDS011;52653;50.080;21.992;2023-04-03T15:43:43;9.00;;;5.30;;
65871;SDS011;52653;50.080;21.992;2023-04-03T15:46:25;10.60;;;5.40;;
65871;SDS011;52653;50.080;21.992;2023-04-03T15:48:58;14.00;;;6.70;;
65871;SDS011;52653;50.080;21.992;2023-04-03T15:51:33;11.20;;;6.10;;
65871;SDS011;52653;50.080;21.992;2023-04-03T15:54:06;12.30;;;7.00;;
65871;SDS011;52653;50.080;21.992;2023-04-03T15:56:39;21.90;;;10.90;;
65871;SDS011;52653;50.080;21.992;2023-04-03T15:59:23;18.30;;;9.80;;
65871;SDS011;52653;50.080;21.992;2023-04-03T16:02:15;15.40;;;8.50;;
65871;SDS011;52653;50.080;21.992;2023-04-03T16:04:59;24.70;;;14.50;;
65871;SDS011;52653;50.080;21.992;2023-04-03T16:07:34;27.20;;;17.20;;
65871;SDS011;52653;50.080;21.992;2023-04-03T16:10:14;35.60;;;20.30;;
65871;SDS011;52653;50.080;21.992;2023-04-03T16:12:51;28.90;;;15.70;;
65871;SDS011;52653;50.080;21.992;2023-04-03T16:15:27;25.20;;;14.00;;
65871;SDS011;52653;50.080;21.992;2023-04-03T16:18:03;23.00;;;12.70;;
65871;SDS011;52653;50.080;21.992;2023-04-03T16:20:36;22.70;;;14.20;;
65871;SDS011;52653;50.080;21.992;2023-04-03T16:23:12;16.60;;;9.80;;
65871;SDS011;52653;50.080;21.992;2023-04-03T16:25:50;23.50;;;12.40;;
65871;SDS011;52653;50.080;21.992;2023-04-03T16:28:26;21.70;;;12.30;;
65871;SDS011;52653;50.080;21.992;2023-04-03T16:30:59;26.70;;;14.60;;
65871;SDS011;52653;50.080;21.992;2023-04-03T16:33:36;32.70;;;16.80;;
65871;SDS011;52653;50.080;21.992;2023-04-03T16:36:09;22.90;;;11.30;;
65871;SDS011;52653;50.080;21.992;2023-04-03T16:38:54;25.00;;;14.30;;
65871;SDS011;52653;50.080;21.992;2023-04-03T16:41:29;26.10;;;13.60;;
65871;SDS011;52653;50.080;21.992;2023-04-03T16:44:04;24.10;;;12.60;;
65871;SDS011;52653;50.080;21.992;2023-04-03T16:46:37;22.20;;;11.30;;
65871;SDS011;52653;50.080;21.992;2023-04-03T16:49:10;17.90;;;10.30;;
65871;SDS011;52653;50.080;21.992;2023-04-03T16:51:43;16.00;;;8.40;;
65871;SDS011;52653;50.080;21.992;2023-04-03T16:54:16;23.70;;;13.70;;